Time;durP1;ratioP1;P1;durP2;ratioP2;P2;SDS_P1;SDS_P2;PMS_P1;PMS_P2;Temp;Humidity;BMP_temperature;BMP_pressure;BME280_temperature;BME280_humidity;BME280_pressure;Samples;Min_cycle;Max_cycle;Signal;HPM_P1;HPM_P2
2021/06/24 00:02:01;;;;;;;24.98;13.93;;;;;;;16.57;76.60;100805.19;1790532;80;20979;-69
2021/06/24 00:04:29;;;;;;;25.85;14.83;;;;;;;16.59;76.65;100797.21;1790318;80;21015;-69
2021/06/24 00:06:56;;;;;;;23.70;14.20;;;;;;;16.65;76.69;100805.00;1790706;80;20987;-69
2021/06/24 00:09:23;;;;;;;19.90;14.38;;;;;;;16.65;76.72;100822.50;1790639;80;21473;-69
2021/06/24 00:11:50;;;;;;;24.92;14.30;;;;;;;16.63;76.79;100819.19;1762012;80;21013;-69
2021/06/24 00:14:17;;;;;;;24.05;14.80;;;;;;;16.63;76.83;100817.84;1790621;80;21492;-69
2021/06/24 00:16:44;;;;;;;20.88;12.82;;;;;;;16.66;76.88;100826.36;1790507;80;21038;-69
2021/06/24 00:19:11;;;;;;;21.73;12.95;;;;;;;16.69;76.93;100828.64;1790620;80;21440;-69
2021/06/24 00:21:38;;;;;;;26.20;13.00;;;;;;;16.74;77.00;100841.53;1790695;80;20995;-69
2021/06/24 00:24:05;;;;;;;19.27;12.88;;;;;;;16.79;77.05;100839.05;1790604;80;21014;-69
2021/06/24 00:26:32;;;;;;;18.60;12.00;;;;;;;16.80;77.06;100840.72;1790737;80;21007;-69
2021/06/24 00:28:59;;;;;;;21.65;12.47;;;;;;;16.83;77.15;100845.19;1790432;80;21471;-69
2021/06/24 00:31:27;;;;;;;21.12;13.13;;;;;;;16.87;77.20;100842.93;1790024;80;21042;-69
2021/06/24 00:33:54;;;;;;;20.23;12.47;;;;;;;16.96;77.23;100845.76;1790165;80;20995;-69
2021/06/24 00:36:21;;;;;;;22.15;13.32;;;;;;;17.06;77.27;100852.98;1790058;80;21022;-69
2021/06/24 00:38:48;;;;;;;24.27;12.98;;;;;;;17.13;77.27;100850.31;1790201;80;21014;-69
2021/06/24 00:41:15;;;;;;;25.90;13.40;;;;;;;17.23;77.25;100836.77;1789747;80;21531;-69
2021/06/24 00:43:42;;;;;;;22.87;12.18;;;;;;;17.28;77.23;100830.23;1790285;80;20979;-69
2021/06/24 00:46:09;;;;;;;21.55;11.75;;;;;;;17.28;77.24;100824.84;1790475;80;21495;-69
2021/06/24 00:48:36;;;;;;;20.80;12.65;;;;;;;17.29;77.27;100821.64;1792826;79;21392;-69
2021/06/24 00:51:04;;;;;;;17.10;12.05;;;;;;;17.29;77.26;100821.64;1793192;80;21059;-69
2021/06/24 00:53:31;;;;;;;16.10;10.50;;;;;;;17.26;77.29;100824.73;1793043;80;21042;-69
2021/06/24 00:55:58;;;;;;;21.02;13.18;;;;;;;17.25;77.31;100827.95;1793399;80;20995;-69
2021/06/24 00:58:26;;;;;;;20.77;11.12;;;;;;;17.27;77.30;100837.20;1793296;80;21018;-69
2021/06/24 01:00:55;;;;;;;17.45;9.78;;;;;;;17.32;77.29;100846.33;1793229;79;21482;-69
2021/06/24 01:03:23;;;;;;;14.58;10.03;;;;;;;17.36;77.24;100853.48;1791753;80;21659;-69
2021/06/24 01:05:50;;;;;;;15.23;10.43;;;;;;;17.38;77.22;100863.03;1793006;80;21026;-69
2021/06/24 01:08:17;;;;;;;15.50;10.00;;;;;;;17.45;77.22;100870.63;1793281;79;21045;-69
2021/06/24 01:10:45;;;;;;;15.75;10.18;;;;;;;17.53;77.21;100878.22;1793273;80;21531;-69
2021/06/24 01:13:12;;;;;;;20.48;10.13;;;;;;;17.57;77.18;100888.44;1793396;80;21058;-69
2021/06/24 01:15:41;;;;;;;18.50;10.08;;;;;;;17.59;77.17;100913.87;1793029;79;21101;-69
2021/06/24 01:18:08;;;;;;;19.67;10.58;;;;;;;17.55;77.14;100932.80;1793288;79;20974;-69
2021/06/24 01:20:36;;;;;;;19.67;9.48;;;;;;;17.50;77.15;100946.88;1793228;79;20975;-69
2021/06/24 01:23:04;;;;;;;13.95;9.33;;;;;;;17.53;77.16;100968.05;1791589;80;21077;-69
2021/06/24 01:25:32;;;;;;;17.52;10.25;;;;;;;17.61;77.12;100980.57;1793313;80;21053;-69
2021/06/24 01:28:01;;;;;;;20.37;13.08;;;;;;;17.63;77.07;100986.58;1793257;79;21554;-69
2021/06/24 01:30:28;;;;;;;22.77;12.30;;;;;;;17.62;77.06;100987.64;1791505;80;21089;-69
2021/06/24 01:32:56;;;;;;;20.68;10.85;;;;;;;17.67;77.10;100991.89;1793212;79;20991;-69
2021/06/24 01:35:26;;;;;;;19.60;11.38;;;;;;;17.68;77.08;100984.12;1793329;80;20986;-69
2021/06/24 01:37:57;;;;;;;;;;;;;;;17.67;77.05;100976.55;1795960;79;21492;-69
2021/06/24 01:40:25;;;;;;;18.85;10.70;;;;;;;17.68;77.02;100969.29;1793189;80;21097;-69
2021/06/24 01:42:53;;;;;;;20.32;11.05;;;;;;;17.73;77.00;100965.48;1809336;79;20984;-69
2021/06/24 01:45:21;;;;;;;17.85;10.38;;;;;;;17.75;76.96;100967.44;1793143;79;21093;-69
2021/06/24 01:47:48;;;;;;;19.40;10.70;;;;;;;17.80;76.93;100963.63;1790732;80;21487;-69
2021/06/24 01:50:15;;;;;;;16.90;9.40;;;;;;;17.88;76.86;100960.73;1790018;80;21004;-69
2021/06/24 01:52:43;;;;;;;15.78;9.13;;;;;;;17.89;76.78;100959.19;1781823;80;21071;-69
2021/06/24 01:55:13;;;;;;;13.95;8.35;;;;;;;17.92;76.75;100945.80;1790199;79;20994;-69
2021/06/24 01:57:40;;;;;;;;;;;;;;;17.97;76.69;100939.28;1792879;80;21046;-69
2021/06/24 02:00:09;;;;;;;15.40;9.05;;;;;;;17.91;76.64;100940.08;1790116;80;20171;-69
2021/06/24 02:02:36;;;;;;;25.03;9.70;;;;;;;17.84;76.59;100938.72;1790425;80;21507;-69
2021/06/24 02:05:08;;;;;;;19.50;9.48;;;;;;;17.89;76.54;100949.75;1788532;80;21042;-69
2021/06/24 02:07:40;;;;;;;17.37;8.48;;;;;;;17.90;76.46;100935.73;1789772;80;21483;-70
2021/06/24 02:10:09;;;;;;;14.73;8.53;;;;;;;17.84;76.46;100931.14;1790162;80;21072;-69
2021/06/24 02:12:37;;;;;;;14.67;8.50;;;;;;;17.79;76.46;100930.42;1790366;80;21022;-69
2021/06/24 02:15:05;;;;;;;12.95;8.98;;;;;;;17.85;76.45;100928.77;1790124;80;21566;-69
2021/06/24 02:17:32;;;;;;;14.73;8.53;;;;;;;17.93;76.39;100925.88;1790523;80;21023;-69
2021/06/24 02:19:59;;;;;;;17.57;8.95;;;;;;;17.97;76.34;100919.04;1789957;80;21030;-69
2021/06/24 02:22:27;;;;;;;13.95;8.33;;;;;;;17.92;76.28;100897.22;1790344;80;20978;-69
2021/06/24 02:24:54;;;;;;;16.52;9.28;;;;;;;17.84;76.24;100870.42;1790216;80;21058;-69
2021/06/24 02:27:21;;;;;;;20.43;9.65;;;;;;;17.70;76.24;100822.88;1790428;80;21061;-69
2021/06/24 02:29:48;;;;;;;14.75;8.00;;;;;;;17.57;76.26;100723.08;1790057;80;21034;-69
2021/06/24 02:32:15;;;;;;;16.93;7.95;;;;;;;17.39;76.31;100622.55;1790313;80;21499;-69
2021/06/24 02:34:42;;;;;;;14.55;8.83;;;;;;;17.21;76.39;100651.48;1790494;80;21050;-70
2021/06/24 02:37:09;;;;;;;22.00;9.28;;;;;;;17.10;76.44;100685.77;1761447;80;21027;-70
2021/06/24 02:39:37;;;;;;;29.63;9.70;;;;;;;17.04;76.51;100670.44;1790189;80;21014;-70
2021/06/24 02:42:04;;;;;;;16.20;8.93;;;;;;;16.96;76.49;100632.90;1790117;80;21087;-70
2021/06/24 02:44:31;;;;;;;23.65;8.95;;;;;;;16.85;76.53;100637.57;1790178;80;20983;-70
2021/06/24 02:46:58;;;;;;;20.62;9.58;;;;;;;16.78;76.65;100635.38;1789997;80;20982;-70
2021/06/24 02:49:26;;;;;;;18.50;8.83;;;;;;;16.69;76.70;100640.63;1790052;80;20995;-70
2021/06/24 02:51:52;;;;;;;19.98;9.65;;;;;;;16.64;76.79;100648.50;1790023;80;21109;-70
2021/06/24 02:54:20;;;;;;;20.90;8.93;;;;;;;16.64;76.84;100660.63;1790335;80;21661;-70
2021/06/24 02:56:47;;;;;;;24.52;10.05;;;;;;;16.61;76.91;100643.50;1790611;80;20975;-70
2021/06/24 02:59:14;;;;;;;20.37;9.08;;;;;;;16.56;76.93;100611.81;1790277;80;21502;-70
2021/06/24 03:01:41;;;;;;;15.78;8.73;;;;;;;16.49;77.06;100584.85;1790445;80;21031;-70
2021/06/24 03:04:08;;;;;;;17.85;8.85;;;;;;;16.42;77.14;100579.13;1781407;80;21539;-70
2021/06/24 03:06:35;;;;;;;23.40;9.25;;;;;;;16.36;77.27;100592.06;1790083;79;21300;-70
2021/06/24 03:09:04;;;;;;;21.02;8.95;;;;;;;16.32;77.42;100574.66;1822968;78;20979;-70
2021/06/24 03:11:32;;;;;;;16.43;8.23;;;;;;;16.32;77.55;100558.00;1790205;80;21031;-70
2021/06/24 03:13:59;;;;;;;13.53;7.70;;;;;;;16.31;77.64;100544.22;1789970;80;21447;-70
2021/06/24 03:16:26;;;;;;;16.77;8.98;;;;;;;16.29;77.74;100532.80;1790040;80;21054;-69
2021/06/24 03:18:53;;;;;;;20.32;10.08;;;;;;;16.25;77.99;100535.62;1788387;80;21440;-70
2021/06/24 03:21:20;;;;;;;22.05;9.43;;;;;;;16.23;78.10;100552.47;1790455;80;21030;-70
2021/06/24 03:23:47;;;;;;;16.42;8.68;;;;;;;16.22;78.20;100562.91;1788951;80;21480;-70
2021/06/24 03:26:14;;;;;;;23.57;7.47;;;;;;;16.26;78.31;100560.13;1790485;80;20999;-70
2021/06/24 03:28:41;;;;;;;15.18;7.70;;;;;;;16.30;78.36;100565.42;1790506;80;21475;-70
2021/06/24 03:31:09;;;;;;;15.30;6.97;;;;;;;16.32;78.41;100570.11;1790571;80;21042;-70
2021/06/24 03:33:36;;;;;;;12.20;7.35;;;;;;;16.36;78.43;100579.41;1790379;80;21522;-70
2021/06/24 03:36:04;;;;;;;14.68;8.23;;;;;;;16.40;78.49;100586.05;1790558;80;21062;-70
2021/06/24 03:38:31;;;;;;;14.15;7.53;;;;;;;16.44;78.51;100587.31;1790465;80;21538;-70
2021/06/24 03:40:58;;;;;;;15.20;7.55;;;;;;;16.48;78.55;100579.14;1790270;80;20990;-70
2021/06/24 03:43:25;;;;;;;16.73;7.92;;;;;;;16.52;78.60;100580.08;1790128;80;21088;-70
2021/06/24 03:45:52;;;;;;;15.13;7.95;;;;;;;16.54;78.62;100591.49;1790525;80;21451;-70
2021/06/24 03:48:19;;;;;;;14.03;7.25;;;;;;;16.56;78.61;100596.17;1790296;79;20983;-70
2021/06/24 03:50:46;;;;;;;12.15;7.58;;;;;;;16.58;78.66;100596.27;1790467;80;21495;-70
2021/06/24 03:53:13;;;;;;;16.15;8.23;;;;;;;16.68;78.66;100614.72;1790551;80;21101;-70
2021/06/24 03:55:42;;;;;;;16.00;8.43;;;;;;;16.68;78.67;100628.19;1790438;80;21183;-70
2021/06/24 03:58:10;;;;;;;16.93;10.18;;;;;;;16.71;78.70;100626.46;1790531;80;21038;-70
2021/06/24 04:00:41;;;;;;;17.85;10.13;;;;;;;16.77;78.71;100613.52;1790489;80;20999;-70
2021/06/24 04:03:08;;;;;;;16.67;9.25;;;;;;;16.83;78.70;100622.11;1788737;80;20980;-70
2021/06/24 04:05:35;;;;;;;21.10;12.13;;;;;;;16.88;78.69;100622.34;1790609;80;21014;-70
2021/06/24 04:08:05;;;;;;;17.10;10.20;;;;;;;16.87;78.74;100619.33;1790190;80;21028;-70
2021/06/24 04:10:32;;;;;;;17.82;10.20;;;;;;;16.86;78.80;100615.80;1790502;80;20962;-70
2021/06/24 04:13:00;;;;;;;23.02;10.43;;;;;;;16.79;78.83;100619.52;1822741;78;20980;-70
2021/06/24 04:15:28;;;;;;;18.25;11.05;;;;;;;16.72;78.86;100629.45;1790541;80;20986;-70
2021/06/24 04:17:55;;;;;;;18.65;10.43;;;;;;;16.67;78.93;100637.32;1790457;80;21026;-70
2021/06/24 04:20:22;;;;;;;13.05;10.18;;;;;;;16.61;78.99;100646.19;1790543;80;21029;-70
2021/06/24 04:22:49;;;;;;;20.62;10.82;;;;;;;16.60;79.07;100639.17;1790607;80;20999;-70
2021/06/24 04:25:17;;;;;;;18.85;11.53;;;;;;;16.58;79.13;100643.91;1790375;80;20994;-70
2021/06/24 04:27:45;;;;;;;14.93;10.15;;;;;;;16.55;79.23;100638.91;1761794;80;20999;-70
2021/06/24 04:30:13;;;;;;;18.60;11.05;;;;;;;16.54;79.27;100634.57;1790549;80;21050;-70
2021/06/24 04:32:40;;;;;;;19.10;10.15;;;;;;;16.58;79.32;100626.41;1790700;80;21058;-70
2021/06/24 04:35:08;;;;;;;22.55;11.03;;;;;;;16.58;79.37;100620.52;1790531;80;21042;-70
2021/06/24 04:37:35;;;;;;;19.90;10.53;;;;;;;16.60;79.45;100622.50;1790676;80;21077;-70
2021/06/24 04:40:04;;;;;;;14.50;9.80;;;;;;;16.63;79.49;100623.44;1790582;80;20990;-70
2021/06/24 04:42:31;;;;;;;16.80;9.83;;;;;;;16.69;79.57;100637.94;1788875;80;21054;-70
2021/06/24 04:44:58;;;;;;;22.85;10.30;;;;;;;16.73;79.60;100635.98;1790580;80;21062;-70
2021/06/24 04:47:25;;;;;;;18.75;9.78;;;;;;;16.74;79.63;100643.55;1783666;79;21462;-70
2021/06/24 04:49:52;;;;;;;14.50;9.53;;;;;;;16.75;79.64;100643.84;1763445;81;21028;-70
2021/06/24 04:52:19;;;;;;;24.60;11.12;;;;;;;16.75;79.69;100650.58;1790935;80;20977;-70
2021/06/24 04:54:46;;;;;;;19.45;10.10;;;;;;;16.77;79.73;100648.02;1763422;81;21043;-70
2021/06/24 04:57:13;;;;;;;14.00;9.60;;;;;;;16.83;79.78;100643.66;1763401;81;21726;-70
2021/06/24 04:59:40;;;;;;;18.25;8.90;;;;;;;16.87;79.79;100660.57;1763331;81;21023;-70
2021/06/24 05:02:07;;;;;;;16.17;9.05;;;;;;;16.92;79.86;100674.78;1791339;80;21497;-70
2021/06/24 05:04:34;;;;;;;15.70;9.48;;;;;;;16.95;79.85;100668.47;1758100;81;20981;-70
2021/06/24 05:07:06;;;;;;;12.63;8.78;;;;;;;17.00;79.88;100674.57;1758487;81;21044;-70
2021/06/24 05:09:33;;;;;;;13.80;9.35;;;;;;;16.99;79.90;100677.78;1757880;81;21127;-70
2021/06/24 05:11:59;;;;;;;15.03;8.43;;;;;;;17.01;79.93;100681.63;1758475;81;21068;-70
2021/06/24 05:14:26;;;;;;;19.00;8.33;;;;;;;17.02;79.96;100679.25;1758439;81;21020;-70
2021/06/24 05:16:53;;;;;;;16.12;8.60;;;;;;;17.06;79.98;100682.38;1758423;81;21044;-70
2021/06/24 05:19:20;;;;;;;13.62;8.03;;;;;;;17.14;79.99;100693.77;1758529;81;21083;-70
2021/06/24 05:21:47;;;;;;;20.15;7.35;;;;;;;17.19;79.94;100695.34;1758363;81;21040;-70
2021/06/24 05:24:14;;;;;;;18.42;9.05;;;;;;;17.13;79.95;100708.30;1763442;81;21015;-70
2021/06/24 05:26:41;;;;;;;17.05;7.22;;;;;;;17.09;79.93;100694.92;1763389;81;21078;-70
2021/06/24 05:29:08;;;;;;;15.15;8.30;;;;;;;17.12;79.95;100701.75;1758364;80;21010;-70
2021/06/24 05:31:37;;;;;;;14.53;7.85;;;;;;;17.15;79.96;100711.61;1781430;80;21052;-69
2021/06/24 05:34:04;;;;;;;10.17;7.90;;;;;;;17.16;79.94;100715.97;1787955;80;21002;-70
2021/06/24 05:36:33;;;;;;;14.65;8.50;;;;;;;17.18;79.90;100718.45;1794300;78;21041;-70
2021/06/24 05:39:00;;;;;;;15.05;9.05;;;;;;;17.17;79.88;100716.81;1803562;78;21021;-70
2021/06/24 05:41:28;;;;;;;19.55;8.83;;;;;;;17.17;79.88;100714.91;1775945;80;21013;-70
2021/06/24 05:43:57;;;;;;;12.10;7.55;;;;;;;17.16;79.88;100718.66;1786627;78;21017;-70
2021/06/24 05:46:25;;;;;;;22.23;8.63;;;;;;;17.19;79.85;100717.42;1816406;78;21041;-70
2021/06/24 05:48:52;;;;;;;18.92;7.80;;;;;;;17.21;79.86;100715.34;1812813;78;20994;-70
2021/06/24 05:51:22;;;;;;;20.65;8.13;;;;;;;17.22;79.88;100711.61;1824932;78;20982;-70
2021/06/24 05:53:49;;;;;;;11.95;7.72;;;;;;;17.22;79.84;100711.09;1824714;78;20977;-70
2021/06/24 05:56:17;;;;;;;17.17;8.40;;;;;;;17.26;79.84;100710.17;1822523;78;20997;-70
2021/06/24 05:58:44;;;;;;;17.15;8.15;;;;;;;17.24;79.84;100719.80;1795198;78;21447;-70
2021/06/24 06:01:12;;;;;;;18.45;8.20;;;;;;;17.19;79.77;100719.60;1824702;77;21064;-70
2021/06/24 06:03:39;;;;;;;16.07;8.43;;;;;;;17.15;79.78;100718.34;1803471;78;20974;-70
2021/06/24 06:06:06;;;;;;;18.20;9.18;;;;;;;17.13;79.80;100721.78;1796142;78;20997;-70
2021/06/24 06:08:33;;;;;;;15.95;8.25;;;;;;;17.15;79.82;100722.39;1816896;78;21049;-71
2021/06/24 06:11:00;;;;;;;20.62;9.78;;;;;;;17.14;79.82;100726.11;1804528;78;21166;-70
2021/06/24 06:13:27;;;;;;;18.55;9.50;;;;;;;17.20;79.84;100722.62;1803988;78;21811;-70
2021/06/24 06:15:54;;;;;;;25.02;10.93;;;;;;;17.27;79.85;100726.67;1792596;80;20986;-70
2021/06/24 06:18:24;;;;;;;14.98;8.38;;;;;;;17.32;79.84;100730.91;1822874;78;21048;-70
2021/06/24 06:20:52;;;;;;;12.93;8.30;;;;;;;17.36;79.86;100734.34;1812239;78;20990;-71
2021/06/24 06:23:20;;;;;;;18.50;8.18;;;;;;;17.38;79.87;100733.61;1795764;78;21541;-70
2021/06/24 06:25:48;;;;;;;14.70;7.80;;;;;;;17.39;79.87;100729.88;1792708;78;21041;-70
2021/06/24 06:28:16;;;;;;;13.05;8.15;;;;;;;17.45;79.88;100722.86;1799321;78;20999;-69
2021/06/24 06:30:43;;;;;;;31.60;9.08;;;;;;;17.51;79.88;100724.72;1815361;78;21037;-69
2021/06/24 06:33:10;;;;;;;17.98;8.70;;;;;;;17.56;79.84;100724.94;1804787;78;21013;-69
2021/06/24 06:35:37;;;;;;;15.10;8.03;;;;;;;17.60;79.82;100727.53;1801551;78;21017;-69
2021/06/24 06:38:04;;;;;;;13.93;8.78;;;;;;;17.61;79.74;100725.16;1794043;78;20993;-70
2021/06/24 06:40:32;;;;;;;17.12;11.10;;;;;;;17.58;79.72;100725.58;1808727;78;21086;-69
2021/06/24 06:42:59;;;;;;;12.18;9.15;;;;;;;17.64;79.77;100727.95;1811025;77;20966;-70
2021/06/24 06:45:31;;;;;;;15.45;9.70;;;;;;;17.66;79.73;100720.50;1829101;77;21053;-70
2021/06/24 06:47:58;;;;;;;14.83;8.53;;;;;;;17.71;79.68;100720.69;1797854;78;21733;-70
2021/06/24 06:50:25;;;;;;;17.10;8.80;;;;;;;17.77;79.73;100713.09;1818813;78;21053;-70
2021/06/24 06:52:52;;;;;;;13.20;10.20;;;;;;;17.86;79.73;100713.21;1804564;78;20994;-70
2021/06/24 06:55:19;;;;;;;18.30;9.28;;;;;;;18.00;79.66;100717.55;1805795;78;21862;-70
2021/06/24 06:57:46;;;;;;;18.48;9.03;;;;;;;18.10;79.63;100716.59;1817713;78;21029;-70
2021/06/24 07:00:16;;;;;;;14.33;8.38;;;;;;;18.19;79.59;100711.27;1795656;78;20983;-70
2021/06/24 07:02:43;;;;;;;19.67;8.15;;;;;;;18.31;79.52;100721.73;1796268;78;20996;-70
2021/06/24 07:05:11;;;;;;;14.65;8.60;;;;;;;18.38;79.46;100710.39;1802586;78;21060;-70
2021/06/24 07:07:38;;;;;;;15.93;7.95;;;;;;;18.46;79.38;100696.66;1805941;78;21540;-70
2021/06/24 07:10:06;;;;;;;12.78;7.95;;;;;;;18.45;79.32;100700.39;1817663;78;20987;-70
2021/06/24 07:12:33;;;;;;;12.95;7.95;;;;;;;18.52;79.28;100698.20;1814470;78;21020;-70
2021/06/24 07:15:00;;;;;;;23.18;8.23;;;;;;;18.59;79.18;100694.95;1779839;78;21871;-70
2021/06/24 07:17:27;;;;;;;14.03;8.65;;;;;;;18.64;79.10;100700.55;1785468;79;20987;-70
2021/06/24 07:19:54;;;;;;;15.98;7.78;;;;;;;18.72;79.00;100699.77;1778643;79;21001;-70
2021/06/24 07:22:22;;;;;;;12.63;7.87;;;;;;;18.72;78.83;100702.98;1781641;79;21023;-70
2021/06/24 07:24:49;;;;;;;10.63;7.22;;;;;;;18.68;78.74;100695.03;1783224;79;21036;-70
2021/06/24 07:27:16;;;;;;;15.50;7.95;;;;;;;18.74;78.63;100699.05;1784169;79;20973;-70
2021/06/24 07:29:43;;;;;;;10.88;6.72;;;;;;;18.83;78.55;100692.34;1781702;79;21041;-69
2021/06/24 07:32:10;;;;;;;13.32;7.85;;;;;;;18.96;78.43;100695.50;1780053;79;21038;-70
2021/06/24 07:34:37;;;;;;;13.22;7.85;;;;;;;19.07;78.31;100698.03;1813781;78;21488;-70
2021/06/24 07:37:04;;;;;;;20.05;8.58;;;;;;;19.22;78.17;100692.61;1808630;78;21126;-70
2021/06/24 07:39:31;;;;;;;15.55;7.58;;;;;;;19.31;78.01;100696.72;1803055;78;20983;-69
2021/06/24 07:41:58;;;;;;;15.72;7.90;;;;;;;19.44;77.87;100690.40;1784973;80;20990;-69
2021/06/24 07:44:25;;;;;;;11.95;7.05;;;;;;;19.48;77.65;100690.78;1780254;79;21008;-69
2021/06/24 07:46:52;;;;;;;13.13;6.95;;;;;;;19.48;77.52;100696.20;1812850;78;21521;-70
2021/06/24 07:49:19;;;;;;;14.05;7.47;;;;;;;19.46;77.34;100702.36;1779876;80;21047;-69
2021/06/24 07:51:48;;;;;;;12.00;7.67;;;;;;;19.53;77.23;100704.49;1785012;79;21956;-70
2021/06/24 07:54:15;;;;;;;16.23;7.55;;;;;;;19.49;77.09;100706.81;1780670;79;20990;-70
2021/06/24 07:56:42;;;;;;;13.88;8.30;;;;;;;19.42;76.93;100711.44;1783240;79;21012;-70
2021/06/24 07:59:12;;;;;;;13.85;7.87;;;;;;;19.47;76.89;100712.11;1780321;79;21025;-70
2021/06/24 08:01:41;;;;;;;11.88;8.30;;;;;;;19.54;76.71;100715.59;1784902;78;22530;-70
2021/06/24 08:04:10;;;;;;;13.70;7.90;;;;;;;19.61;76.62;100715.02;1781844;78;21953;-70
2021/06/24 08:06:37;;;;;;;15.00;8.20;;;;;;;19.68;76.50;100709.02;1800261;78;21751;-70
2021/06/24 08:09:10;;;;;;;14.35;8.03;;;;;;;19.69;76.26;100717.45;1817714;78;21054;-70
2021/06/24 08:11:36;;;;;;;14.45;8.18;;;;;;;19.71;76.19;100718.05;1807180;78;20995;-70
2021/06/24 08:14:03;;;;;;;16.17;8.23;;;;;;;19.78;76.07;100716.11;1807172;78;21045;-70
2021/06/24 08:16:31;;;;;;;11.25;8.00;;;;;;;19.81;75.94;100715.14;1782315;80;21028;-70
2021/06/24 08:18:58;;;;;;;16.12;8.90;;;;;;;19.86;75.84;100706.36;1785751;79;21040;-70
2021/06/24 08:21:25;;;;;;;13.35;8.45;;;;;;;19.91;75.69;100709.23;1784917;79;21807;-70
2021/06/24 08:23:52;;;;;;;12.18;9.35;;;;;;;19.75;75.54;100717.39;1785894;80;21018;-70
2021/06/24 08:26:19;;;;;;;14.93;8.60;;;;;;;19.63;75.48;100718.34;1791855;78;21537;-70
2021/06/24 08:28:47;;;;;;;10.32;8.20;;;;;;;19.58;75.45;100710.05;1769936;81;20987;-70
2021/06/24 08:31:14;;;;;;;11.75;9.08;;;;;;;19.52;75.40;100716.35;1791653;80;21932;-70
2021/06/24 08:33:41;;;;;;;20.90;9.58;;;;;;;19.52;75.36;100716.35;1766196;79;20971;-71
2021/06/24 08:36:08;;;;;;;16.70;9.28;;;;;;;19.61;75.25;100709.60;1822945;78;21041;-71
2021/06/24 08:38:36;;;;;;;15.28;8.85;;;;;;;19.71;75.22;100716.17;1795514;78;21061;-71
2021/06/24 08:41:03;;;;;;;11.97;8.88;;;;;;;19.80;75.07;100711.32;1805880;77;21004;-71
2021/06/24 08:43:30;;;;;;;13.58;9.38;;;;;;;19.82;74.93;100722.73;1810897;78;20978;-71
2021/06/24 08:46:03;;;;;;;14.90;9.30;;;;;;;19.75;74.85;100716.56;1792627;78;21462;-71
2021/06/24 08:48:35;;;;;;;13.58;8.43;;;;;;;19.69;74.75;100720.16;1764458;80;21070;-71
2021/06/24 08:51:04;;;;;;;16.07;9.45;;;;;;;19.73;74.68;100711.91;1792086;78;21060;-71
2021/06/24 08:53:31;;;;;;;14.65;9.30;;;;;;;19.78;74.61;100706.64;1770244;80;21014;-71
2021/06/24 08:55:59;;;;;;;26.95;10.55;;;;;;;19.84;74.38;100710.63;1816210;78;21485;-71
2021/06/24 08:58:26;;;;;;;16.05;9.33;;;;;;;20.07;74.36;100704.58;1789716;79;21003;-71
2021/06/24 09:00:54;;;;;;;14.53;8.90;;;;;;;20.36;74.23;100698.47;1791538;80;21037;-71
2021/06/24 09:03:23;;;;;;;16.97;9.30;;;;;;;20.65;74.15;100696.86;1770201;80;21535;-71
2021/06/24 09:05:55;;;;;;;12.13;8.98;;;;;;;21.15;74.02;100695.23;1798316;78;21855;-71
2021/06/24 09:08:42;;;;;;;11.38;8.20;;;;;;;21.51;73.61;100695.60;1766674;80;21010;-71
2021/06/24 09:11:22;;;;;;;10.88;8.50;;;;;;;21.76;73.24;100696.22;1767497;80;21010;-71
2021/06/24 09:14:13;;;;;;;12.73;8.35;;;;;;;21.82;72.90;100699.34;1793378;79;21042;-71
2021/06/24 09:16:41;;;;;;;15.72;8.88;;;;;;;21.78;72.57;100702.22;1780950;79;21671;-71
2021/06/24 09:19:20;;;;;;;13.53;8.33;;;;;;;21.92;72.33;100694.17;1770141;81;21467;-71
2021/06/24 09:22:08;;;;;;;14.75;8.45;;;;;;;22.18;71.96;100699.12;1776647;79;21049;-71
2021/06/24 09:24:41;;;;;;;12.53;9.83;;;;;;;22.33;71.62;100703.53;1796768;79;20994;-71
2021/06/24 09:28:05;;;;;;;16.87;8.88;;;;;;;22.23;71.04;100710.64;1822956;78;20979;-71
2021/06/24 09:30:35;;;;;;;11.85;8.53;;;;;;;21.91;70.77;100723.77;1785816;78;21590;-71
2021/06/24 09:33:17;;;;;;;15.32;8.95;;;;;;;21.60;70.64;100722.72;1808402;78;20859;-71
2021/06/24 09:35:56;;;;;;;12.15;8.93;;;;;;;21.46;70.72;100726.70;1764343;80;20981;-71
2021/06/24 09:38:23;;;;;;;16.40;8.63;;;;;;;21.27;70.56;100724.06;1808703;78;20962;-71
2021/06/24 09:40:57;;;;;;;16.67;9.08;;;;;;;21.21;70.47;100723.64;1792687;80;21432;-71
2021/06/24 09:43:32;;;;;;;17.75;9.85;;;;;;;21.25;70.39;100720.73;1825334;78;21473;-71
2021/06/24 09:46:20;;;;;;;16.40;10.28;;;;;;;21.31;70.30;100723.90;1791987;80;21514;-71
2021/06/24 09:48:53;;;;;;;84.17;16.32;;;;;;;21.38;70.22;100723.27;1793270;79;21679;-71
2021/06/24 09:51:26;;;;;;;12.33;9.43;;;;;;;21.43;70.09;100719.31;1815086;78;20974;-71
2021/06/24 09:54:02;;;;;;;15.60;10.18;;;;;;;21.47;69.94;100718.84;1795551;79;21029;-70
2021/06/24 09:56:34;;;;;;;15.60;10.00;;;;;;;21.54;69.87;100722.27;1806133;78;21534;-71
2021/06/24 09:59:04;;;;;;;18.40;10.60;;;;;;;21.64;69.65;100730.69;1785857;79;20973;-71
2021/06/24 10:01:43;;;;;;;16.60;10.65;;;;;;;21.67;69.53;100724.79;1818688;78;21003;-71
2021/06/24 10:04:23;;;;;;;17.02;10.65;;;;;;;21.68;69.47;100729.14;1804448;78;21394;-71
2021/06/24 10:06:53;;;;;;;15.30;10.65;;;;;;;21.70;69.26;100726.50;1828012;78;21426;-71
2021/06/24 10:09:21;;;;;;;16.27;10.43;;;;;;;21.65;69.20;100718.75;1793031;79;21557;-71
2021/06/24 10:11:48;;;;;;;15.10;9.38;;;;;;;21.68;69.10;100719.11;1795729;78;20990;-71
2021/06/24 10:14:15;;;;;;;13.95;9.78;;;;;;;21.80;69.00;100716.41;1784867;78;21499;-71
2021/06/24 10:16:43;;;;;;;18.32;9.85;;;;;;;22.10;68.91;100705.44;1760782;80;20998;-71
2021/06/24 10:19:11;;;;;;;18.55;10.30;;;;;;;22.34;68.74;100710.59;1785188;79;20934;-71
2021/06/24 10:21:38;;;;;;;13.88;8.65;;;;;;;22.49;68.61;100712.81;1822229;78;21579;-71
2021/06/24 10:24:13;;;;;;;13.48;8.90;;;;;;;22.55;68.44;100708.33;1810854;78;21480;-71
2021/06/24 10:26:44;;;;;;;14.70;9.60;;;;;;;22.48;68.23;100713.91;1825480;78;20880;-71
2021/06/24 10:29:19;;;;;;;15.00;10.18;;;;;;;22.31;68.17;100704.28;1793731;80;20994;-71
2021/06/24 10:31:51;;;;;;;15.20;9.73;;;;;;;22.23;68.12;100704.67;1806558;79;21000;-71
2021/06/24 10:34:19;;;;;;;19.02;9.68;;;;;;;22.21;68.12;100700.00;1792785;79;22268;-71
2021/06/24 10:37:15;;;;;;;16.73;8.90;;;;;;;22.23;68.00;100700.60;1777100;80;20979;-71
2021/06/24 10:39:43;;;;;;;15.53;9.70;;;;;;;22.18;67.89;100696.93;1776894;79;21042;-71
2021/06/24 10:42:15;;;;;;;16.10;10.10;;;;;;;22.00;67.87;100700.61;1784311;79;21030;-71
2021/06/24 10:44:49;;;;;;;15.23;9.28;;;;;;;21.93;67.94;100706.69;1777220;80;21416;-71
2021/06/24 10:47:33;;;;;;;12.23;8.90;;;;;;;21.94;67.97;100694.77;1795530;79;22183;-71
2021/06/24 10:50:34;;;;;;;12.70;8.48;;;;;;;21.99;67.87;100693.52;1792141;79;20974;-71
2021/06/24 10:53:12;;;;;;;15.90;10.58;;;;;;;22.10;67.75;100691.33;1811907;78;21008;-71
2021/06/24 10:55:46;;;;;;;12.07;8.70;;;;;;;22.14;67.67;100688.43;1819138;78;21290;-71
2021/06/24 10:58:30;;;;;;;19.98;10.00;;;;;;;22.19;67.59;100688.55;1760420;81;21453;-71
2021/06/24 11:00:59;;;;;;;15.55;8.85;;;;;;;22.15;67.51;100689.26;1785873;80;21548;-71
2021/06/24 11:03:34;;;;;;;13.33;9.10;;;;;;;22.08;67.42;100692.11;1785945;80;21472;-71
2021/06/24 11:06:15;;;;;;;13.22;8.80;;;;;;;21.98;67.36;100688.34;1793622;78;21006;-71
2021/06/24 11:08:43;;;;;;;14.28;8.80;;;;;;;21.87;67.37;100689.96;1822614;78;20975;-71
2021/06/24 11:11:15;;;;;;;13.78;8.48;;;;;;;21.87;67.37;100695.39;1816281;78;22484;-71
2021/06/24 11:13:45;;;;;;;13.60;8.25;;;;;;;21.77;67.29;100695.16;1807787;78;21430;-71
2021/06/24 11:16:21;;;;;;;13.85;7.25;;;;;;;21.69;67.42;100690.08;1775914;79;21035;-71
2021/06/24 11:19:04;;;;;;;10.82;7.58;;;;;;;21.60;67.38;100685.55;1812650;78;21014;-71
2021/06/24 11:21:36;;;;;;;15.60;7.58;;;;;;;21.53;67.46;100688.06;1780749;80;21002;-70
2021/06/24 11:24:12;;;;;;;18.02;8.48;;;;;;;21.45;67.51;100681.62;1780268;80;21031;-71